Time;durP1;ratioP1;P1;durP2;ratioP2;P2;SDS_P1;SDS_P2;PMS_P1;PMS_P2;Temp;Humidity;BMP_temperature;BMP_pressure;BME280_temperature;BME280_humidity;BME280_pressure;Samples;Min_cycle;Max_cycle;Signal;HPM_P1;HPM_P2
2023/12/07 00:00:06;;;;;;;12.82;10.00;;;;;;;;;;6182358;23;20021;-88
2023/12/07 00:02:33;;;;;;;12.68;10.55;;;;;;;;;;6182337;23;20040;-88
2023/12/07 00:05:01;;;;;;;13.68;10.00;;;;;;;;;;6155383;23;20028;-88
2023/12/07 00:07:28;;;;;;;12.77;10.43;;;;;;;;;;6181662;23;20017;-88
2023/12/07 00:09:55;;;;;;;14.30;10.48;;;;;;;;;;6155749;23;20031;-88
2023/12/07 00:12:23;;;;;;;14.18;10.98;;;;;;;;;;6156372;23;20035;-87
2023/12/07 00:14:50;;;;;;;13.05;9.85;;;;;;;;;;6155995;23;20021;-88
2023/12/07 00:17:18;;;;;;;15.35;11.50;;;;;;;;;;6156013;23;20311;-88
2023/12/07 00:19:46;;;;;;;14.88;10.82;;;;;;;;;;6181880;23;20032;-88
2023/12/07 00:22:13;;;;;;;14.45;11.13;;;;;;;;;;6156160;23;20587;-88
2023/12/07 00:24:40;;;;;;;12.55;10.40;;;;;;;;;;6156179;23;20025;-88
2023/12/07 00:27:08;;;;;;;13.23;10.65;;;;;;;;;;6181237;23;20019;-88
2023/12/07 00:29:37;;;;;;;14.18;11.43;;;;;;;;;;6156167;23;20094;-88
2023/12/07 00:32:05;;;;;;;13.88;11.05;;;;;;;;;;6181709;23;20021;-88
2023/12/07 00:34:32;;;;;;;13.60;10.68;;;;;;;;;;6156030;23;20480;-88
2023/12/07 00:36:59;;;;;;;14.98;11.05;;;;;;;;;;6155633;23;20040;-88
2023/12/07 00:39:27;;;;;;;11.98;9.48;;;;;;;;;;6181590;23;20469;-88
2023/12/07 00:41:54;;;;;;;13.90;10.88;;;;;;;;;;6156366;23;20025;-88
2023/12/07 00:44:21;;;;;;;13.68;10.98;;;;;;;;;;6155583;23;20476;-88
2023/12/07 00:46:49;;;;;;;14.10;10.98;;;;;;;;;;6181584;23;20078;-88
2023/12/07 00:49:16;;;;;;;15.20;11.55;;;;;;;;;;6155895;23;20079;-87
2023/12/07 00:51:43;;;;;;;13.57;10.43;;;;;;;;;;6155438;23;20101;-87
2023/12/07 00:54:10;;;;;;;13.20;9.70;;;;;;;;;;6154838;23;20032;-88
2023/12/07 00:56:38;;;;;;;13.45;10.48;;;;;;;;;;6155701;23;20449;-88
2023/12/07 00:59:05;;;;;;;14.88;10.45;;;;;;;;;;6155746;23;20458;-86
2023/12/07 01:01:32;;;;;;;13.45;11.13;;;;;;;;;;6156679;23;20025;-87
2023/12/07 01:04:00;;;;;;;13.07;11.00;;;;;;;;;;6156428;23;20338;-87
2023/12/07 01:06:28;;;;;;;13.70;10.88;;;;;;;;;;6181826;23;20017;-88
2023/12/07 01:08:55;;;;;;;12.50;10.52;;;;;;;;;;6156279;23;20021;-88
2023/12/07 01:11:22;;;;;;;12.70;10.95;;;;;;;;;;6155880;23;20454;-87
2023/12/07 01:13:50;;;;;;;17.52;12.25;;;;;;;;;;6181849;23;20026;-87
2023/12/07 01:16:17;;;;;;;15.43;11.10;;;;;;;;;;6155855;23;20096;-88
2023/12/07 01:18:44;;;;;;;14.82;11.40;;;;;;;;;;6156240;23;20021;-88
2023/12/07 01:21:12;;;;;;;15.93;11.68;;;;;;;;;;6156234;23;20025;-88
2023/12/07 01:23:39;;;;;;;15.13;11.32;;;;;;;;;;6156201;23;20060;-87
2023/12/07 01:26:06;;;;;;;15.30;11.75;;;;;;;;;;6181525;23;20021;-87
2023/12/07 01:28:34;;;;;;;14.82;11.65;;;;;;;;;;6155374;22;20021;-87
2023/12/07 01:31:01;;;;;;;14.40;10.73;;;;;;;;;;6155995;23;20389;-87
2023/12/07 01:33:28;;;;;;;14.00;11.75;;;;;;;;;;6182240;23;20529;-87
2023/12/07 01:35:56;;;;;;;14.32;11.07;;;;;;;;;;6156104;23;20059;-87
2023/12/07 01:38:24;;;;;;;14.95;12.02;;;;;;;;;;6156046;23;20450;-88
2023/12/07 01:40:51;;;;;;;14.98;12.15;;;;;;;;;;6157175;23;20048;-88
2023/12/07 01:43:20;;;;;;;17.10;12.43;;;;;;;;;;6183719;23;20028;-87
2023/12/07 01:45:48;;;;;;;14.68;11.02;;;;;;;;;;6156809;23;20021;-88
2023/12/07 01:48:15;;;;;;;18.40;12.10;;;;;;;;;;6157487;23;20040;-87
2023/12/07 01:50:42;;;;;;;15.55;11.32;;;;;;;;;;6156135;23;20017;-88
2023/12/07 01:53:12;;;;;;;14.48;11.77;;;;;;;;;;6155436;23;20029;-87
2023/12/07 01:55:39;;;;;;;18.80;12.82;;;;;;;;;;6155546;23;20055;-87
2023/12/07 01:58:07;;;;;;;15.02;11.65;;;;;;;;;;6155876;23;20060;-87
2023/12/07 02:00:34;;;;;;;19.38;12.25;;;;;;;;;;6156006;23;20154;-88
2023/12/07 02:03:04;;;;;;;17.77;12.95;;;;;;;;;;6156128;23;20033;-87
2023/12/07 02:05:32;;;;;;;16.73;12.55;;;;;;;;;;6181486;23;20032;-87
2023/12/07 02:08:00;;;;;;;15.82;11.82;;;;;;;;;;6155501;23;20044;-88
2023/12/07 02:10:27;;;;;;;16.73;12.57;;;;;;;;;;6181774;23;20025;-88
2023/12/07 02:12:54;;;;;;;16.00;11.93;;;;;;;;;;6155315;23;20016;-87
2023/12/07 02:15:22;;;;;;;15.15;12.20;;;;;;;;;;6155603;23;20033;-88
2023/12/07 02:17:50;;;;;;;16.80;12.38;;;;;;;;;;6156101;23;20024;-87
2023/12/07 02:20:33;;;;;;;15.90;12.13;;;;;;;;;;6155722;23;20090;-87
2023/12/07 02:23:02;;;;;;;16.40;11.82;;;;;;;;;;6156073;23;20025;-87
2023/12/07 02:25:37;;;;;;;16.08;11.70;;;;;;;;;;6155002;23;20074;-87
2023/12/07 02:28:04;;;;;;;14.10;11.90;;;;;;;;;;6155834;23;20029;-87
2023/12/07 02:30:32;;;;;;;14.40;11.15;;;;;;;;;;6155967;23;20430;-87
2023/12/07 02:32:59;;;;;;;16.40;10.93;;;;;;;;;;6180995;23;20029;-87
2023/12/07 02:35:26;;;;;;;15.63;11.32;;;;;;;;;;6155374;23;20324;-88
2023/12/07 02:37:54;;;;;;;13.43;10.55;;;;;;;;;;6181436;23;20029;-88
2023/12/07 02:40:25;;;;;;;16.73;11.93;;;;;;;;;;6181174;23;20021;-87
2023/12/07 02:42:56;;;;;;;14.70;10.93;;;;;;;;;;6181510;23;20026;-87
2023/12/07 02:45:25;;;;;;;13.20;10.60;;;;;;;;;;6154920;23;20101;-88
2023/12/07 02:47:53;;;;;;;15.32;11.77;;;;;;;;;;6155153;23;20484;-87
2023/12/07 02:50:20;;;;;;;17.27;12.77;;;;;;;;;;6181302;23;20021;-87
2023/12/07 02:52:47;;;;;;;15.23;11.57;;;;;;;;;;6155419;23;20331;-87
2023/12/07 02:55:15;;;;;;;18.85;13.00;;;;;;;;;;6180933;23;20032;-87
2023/12/07 02:57:42;;;;;;;18.83;13.07;;;;;;;;;;6155448;23;20044;-87
2023/12/07 03:00:12;;;;;;;15.05;11.77;;;;;;;;;;6154855;23;20031;-87
2023/12/07 03:02:40;;;;;;;18.05;13.00;;;;;;;;;;6155113;23;20025;-87
2023/12/07 03:05:08;;;;;;;17.40;13.15;;;;;;;;;;6154954;23;20141;-87
2023/12/07 03:07:35;;;;;;;19.13;13.05;;;;;;;;;;6155341;23;20021;-87
2023/12/07 03:10:03;;;;;;;18.00;13.13;;;;;;;;;;6154945;23;20029;-87
2023/12/07 03:12:31;;;;;;;18.92;13.43;;;;;;;;;;6154456;23;20515;-87
2023/12/07 03:14:58;;;;;;;19.63;14.02;;;;;;;;;;6154315;23;20394;-87
2023/12/07 03:17:25;;;;;;;18.88;13.13;;;;;;;;;;6182372;23;20025;-87
2023/12/07 03:19:52;;;;;;;17.15;12.85;;;;;;;;;;6156362;23;20171;-87
2023/12/07 03:22:19;;;;;;;18.85;12.85;;;;;;;;;;6156529;23;20082;-87
2023/12/07 03:24:51;;;;;;;17.35;12.48;;;;;;;;;;6156081;23;20467;-87
2023/12/07 03:27:18;;;;;;;17.60;11.95;;;;;;;;;;6155980;23;20025;-86
2023/12/07 03:29:45;;;;;;;21.73;14.02;;;;;;;;;;6181966;23;20075;-87
2023/12/07 03:32:12;;;;;;;18.40;13.10;;;;;;;;;;6156295;23;20044;-87
2023/12/07 03:34:40;;;;;;;17.80;12.82;;;;;;;;;;6156107;23;20434;-87
2023/12/07 03:37:07;;;;;;;17.15;12.20;;;;;;;;;;6156203;23;20078;-87
2023/12/07 03:39:34;;;;;;;18.45;12.73;;;;;;;;;;6181787;23;20483;-87
2023/12/07 03:42:01;;;;;;;15.90;11.88;;;;;;;;;;6156030;23;20025;-87
2023/12/07 03:44:28;;;;;;;19.05;13.75;;;;;;;;;;6156426;23;20025;-87
2023/12/07 03:46:56;;;;;;;18.65;12.15;;;;;;;;;;6156137;23;20021;-87
2023/12/07 03:49:23;;;;;;;19.20;12.35;;;;;;;;;;6156375;23;20025;-87
2023/12/07 03:51:50;;;;;;;17.45;12.60;;;;;;;;;;6181581;23;20113;-87
2023/12/07 03:54:17;;;;;;;20.83;12.13;;;;;;;;;;6155242;23;20462;-87
2023/12/07 03:56:45;;;;;;;18.33;12.50;;;;;;;;;;6181935;23;20338;-87
2023/12/07 03:59:12;;;;;;;18.30;13.15;;;;;;;;;;6181891;23;20466;-87
2023/12/07 04:01:39;;;;;;;20.45;12.32;;;;;;;;;;6182294;23;20017;-87
2023/12/07 04:04:06;;;;;;;15.27;11.73;;;;;;;;;;6181630;23;20025;-87
2023/12/07 04:06:33;;;;;;;18.67;12.15;;;;;;;;;;6181801;23;20021;-87
2023/12/07 04:09:01;;;;;;;17.15;12.35;;;;;;;;;;6155850;23;20113;-87
2023/12/07 04:11:28;;;;;;;18.00;11.70;;;;;;;;;;6155827;23;20018;-87
2023/12/07 04:13:55;;;;;;;18.52;12.48;;;;;;;;;;6156096;23;20025;-87
2023/12/07 04:16:22;;;;;;;17.90;12.93;;;;;;;;;;6155938;23;20025;-87
2023/12/07 04:18:50;;;;;;;20.27;12.77;;;;;;;;;;6156721;23;20025;-87
2023/12/07 04:21:17;;;;;;;19.23;13.27;;;;;;;;;;6155287;23;20346;-86
2023/12/07 04:23:44;;;;;;;23.20;13.27;;;;;;;;;;6156263;23;20082;-85
2023/12/07 04:26:11;;;;;;;17.73;12.52;;;;;;;;;;6155497;23;20054;-87
2023/12/07 04:28:39;;;;;;;23.35;15.13;;;;;;;;;;6181634;23;20443;-86
2023/12/07 04:31:06;;;;;;;20.75;13.15;;;;;;;;;;6156196;23;20100;-87
2023/12/07 04:33:33;;;;;;;21.25;12.95;;;;;;;;;;6156230;23;20021;-87
2023/12/07 04:36:01;;;;;;;21.13;12.48;;;;;;;;;;6181450;23;20427;-87
2023/12/07 04:38:29;;;;;;;20.05;13.30;;;;;;;;;;6156157;23;20338;-87
2023/12/07 04:40:56;;;;;;;16.30;11.90;;;;;;;;;;6156198;23;20090;-87
2023/12/07 04:43:23;;;;;;;17.55;11.63;;;;;;;;;;6156498;23;20032;-87
2023/12/07 04:45:50;;;;;;;19.88;12.63;;;;;;;;;;6181925;23;20021;-87
2023/12/07 04:48:18;;;;;;;25.40;14.13;;;;;;;;;;6156095;23;20527;-87
2023/12/07 04:50:45;;;;;;;19.90;13.63;;;;;;;;;;6156836;23;20025;-87
2023/12/07 04:53:12;;;;;;;18.60;13.40;;;;;;;;;;6157248;23;20025;-87
2023/12/07 04:55:40;;;;;;;18.05;12.77;;;;;;;;;;6155965;23;20025;-87
2023/12/07 04:58:07;;;;;;;18.77;12.95;;;;;;;;;;6155944;23;20021;-87
2023/12/07 05:00:34;;;;;;;18.38;13.60;;;;;;;;;;6155957;23;20021;-86
2023/12/07 05:03:02;;;;;;;22.23;14.15;;;;;;;;;;6155353;23;20474;-87
2023/12/07 05:05:30;;;;;;;21.00;13.43;;;;;;;;;;6155652;23;20458;-87
2023/12/07 05:07:57;;;;;;;18.73;13.15;;;;;;;;;;6156826;23;20021;-87
2023/12/07 05:10:24;;;;;;;18.27;13.38;;;;;;;;;;6155677;23;20142;-88
2023/12/07 05:12:52;;;;;;;21.50;13.95;;;;;;;;;;6182013;23;20017;-87
2023/12/07 05:15:19;;;;;;;16.58;12.50;;;;;;;;;;6181300;23;20025;-87
2023/12/07 05:17:46;;;;;;;18.00;12.13;;;;;;;;;;6155025;23;20017;-87
2023/12/07 05:20:15;;;;;;;16.77;12.30;;;;;;;;;;6156206;23;20519;-87
2023/12/07 05:22:42;;;;;;;19.17;13.10;;;;;;;;;;6155872;23;20149;-87
2023/12/07 05:25:10;;;;;;;15.82;12.38;;;;;;;;;;6155581;23;20029;-87
2023/12/07 05:27:37;;;;;;;20.60;12.35;;;;;;;;;;6181872;23;20059;-87
2023/12/07 05:30:05;;;;;;;17.67;12.65;;;;;;;;;;6155452;23;20029;-87
2023/12/07 05:32:32;;;;;;;17.67;12.75;;;;;;;;;;6155872;23;20017;-87
2023/12/07 05:34:59;;;;;;;21.25;13.30;;;;;;;;;;6181505;23;20029;-87
2023/12/07 05:37:26;;;;;;;19.48;12.98;;;;;;;;;;6181995;23;20086;-87
2023/12/07 05:39:54;;;;;;;18.40;12.73;;;;;;;;;;6155436;23;20096;-87
2023/12/07 05:42:21;;;;;;;22.10;13.80;;;;;;;;;;6155574;23;20354;-87
2023/12/07 05:44:48;;;;;;;18.80;12.73;;;;;;;;;;6155346;23;20093;-87
2023/12/07 05:47:16;;;;;;;18.55;12.98;;;;;;;;;;6156110;23;20025;-87
2023/12/07 05:49:43;;;;;;;26.27;14.90;;;;;;;;;;6155774;23;20094;-87
2023/12/07 05:52:10;;;;;;;20.55;14.23;;;;;;;;;;6155431;23;20088;-86
2023/12/07 05:54:42;;;;;;;23.80;14.80;;;;;;;;;;6181256;23;20029;-87
2023/12/07 05:57:09;;;;;;;23.85;15.23;;;;;;;;;;6154757;23;20426;-87
2023/12/07 05:59:41;;;;;;;26.98;14.63;;;;;;;;;;6156116;23;20047;-87
2023/12/07 06:02:08;;;;;;;23.38;14.40;;;;;;;;;;6155469;23;20021;-87
2023/12/07 06:04:36;;;;;;;18.80;12.90;;;;;;;;;;6155189;23;20074;-87
2023/12/07 06:07:03;;;;;;;24.58;14.18;;;;;;;;;;6155142;23;20051;-86
2023/12/07 06:09:31;;;;;;;22.65;14.00;;;;;;;;;;6181204;23;20100;-87
2023/12/07 06:11:58;;;;;;;24.50;14.65;;;;;;;;;;6181065;23;20021;-87
2023/12/07 06:14:26;;;;;;;27.88;15.02;;;;;;;;;;6155612;23;20021;-87
2023/12/07 06:16:53;;;;;;;24.58;14.60;;;;;;;;;;6155432;23;20071;-87
2023/12/07 06:19:21;;;;;;;19.10;12.43;;;;;;;;;;6155875;23;20023;-87
2023/12/07 06:21:48;;;;;;;17.52;12.45;;;;;;;;;;6155745;23;20450;-87
2023/12/07 06:24:15;;;;;;;19.30;13.07;;;;;;;;;;6181279;23;20070;-87
2023/12/07 06:26:42;;;;;;;21.20;13.27;;;;;;;;;;6181434;23;20048;-87
2023/12/07 06:29:10;;;;;;;20.13;13.68;;;;;;;;;;6181149;23;20067;-87
2023/12/07 06:31:37;;;;;;;21.05;13.18;;;;;;;;;;6155755;23;20017;-87
2023/12/07 06:34:04;;;;;;;24.90;14.63;;;;;;;;;;6155806;23;20099;-86
2023/12/07 06:36:33;;;;;;;23.48;15.60;;;;;;;;;;6155321;23;20029;-87
2023/12/07 06:39:00;;;;;;;38.53;20.98;;;;;;;;;;6181301;23;20070;-87
2023/12/07 06:41:27;;;;;;;29.50;18.65;;;;;;;;;;6155718;23;20025;-86
2023/12/07 06:43:54;;;;;;;29.50;17.67;;;;;;;;;;6181078;23;20488;-87
2023/12/07 06:46:23;;;;;;;29.95;16.52;;;;;;;;;;6155785;23;20033;-87
2023/12/07 06:48:51;;;;;;;23.73;16.38;;;;;;;;;;6155559;23;20049;-86
2023/12/07 06:51:19;;;;;;;25.90;16.92;;;;;;;;;;6155577;23;20470;-87
2023/12/07 06:53:46;;;;;;;23.77;15.65;;;;;;;;;;6156200;23;20343;-86
2023/12/07 06:56:14;;;;;;;25.48;16.60;;;;;;;;;;6182365;23;20081;-87
2023/12/07 06:58:42;;;;;;;21.45;14.35;;;;;;;;;;6156262;22;20017;-86
2023/12/07 07:01:09;;;;;;;25.15;14.85;;;;;;;;;;6182612;23;20020;-86
2023/12/07 07:03:36;;;;;;;20.15;13.73;;;;;;;;;;6182623;23;20020;-86
2023/12/07 07:06:04;;;;;;;24.40;15.02;;;;;;;;;;6181905;23;20029;-87
2023/12/07 07:08:31;;;;;;;16.80;12.63;;;;;;;;;;6156722;23;20381;-86
2023/12/07 07:10:59;;;;;;;22.10;14.60;;;;;;;;;;6156178;23;20458;-87
2023/12/07 07:13:26;;;;;;;21.55;14.90;;;;;;;;;;6156532;23;20066;-87
2023/12/07 07:15:54;;;;;;;21.80;14.45;;;;;;;;;;6156603;23;20025;-87
2023/12/07 07:18:23;;;;;;;22.40;15.40;;;;;;;;;;6182174;23;20024;-87
2023/12/07 07:20:51;;;;;;;23.45;16.38;;;;;;;;;;6156340;23;20470;-87
2023/12/07 07:23:18;;;;;;;22.23;15.43;;;;;;;;;;6156724;23;20380;-87
2023/12/07 07:25:45;;;;;;;25.85;16.23;;;;;;;;;;6182232;23;20074;-87
2023/12/07 07:28:13;;;;;;;19.75;14.82;;;;;;;;;;6182051;23;20021;-87
2023/12/07 07:30:40;;;;;;;22.10;15.00;;;;;;;;;;6156141;23;20021;-86
2023/12/07 07:33:08;;;;;;;21.85;15.82;;;;;;;;;;6181670;23;20073;-87
2023/12/07 07:35:35;;;;;;;28.05;17.02;;;;;;;;;;6156408;23;20059;-87
2023/12/07 07:38:02;;;;;;;21.80;14.13;;;;;;;;;;6182682;23;20028;-87
2023/12/07 07:40:29;;;;;;;24.40;14.43;;;;;;;;;;6156200;23;20477;-87
2023/12/07 07:42:56;;;;;;;23.48;15.27;;;;;;;;;;6182160;23;20021;-87
2023/12/07 07:45:24;;;;;;;23.63;15.57;;;;;;;;;;6155999;23;20024;-87
2023/12/07 07:47:52;;;;;;;23.52;15.18;;;;;;;;;;6156545;23;20329;-86
2023/12/07 07:50:19;;;;;;;21.95;15.40;;;;;;;;;;6182110;23;20025;-87
2023/12/07 07:52:46;;;;;;;21.10;15.18;;;;;;;;;;6155532;23;20075;-87
2023/12/07 07:55:13;;;;;;;24.17;16.00;;;;;;;;;;6156448;23;20082;-86
2023/12/07 07:57:41;;;;;;;26.38;16.60;;;;;;;;;;6156776;23;20052;-87
2023/12/07 08:00:10;;;;;;;21.85;15.43;;;;;;;;;;6156740;23;20051;-87
2023/12/07 08:02:37;;;;;;;21.85;13.80;;;;;;;;;;6157206;23;20046;-87
2023/12/07 08:05:05;;;;;;;26.00;16.83;;;;;;;;;;6156354;23;20070;-86
2023/12/07 08:07:32;;;;;;;28.20;16.27;;;;;;;;;;6156305;23;20025;-87
2023/12/07 08:10:00;;;;;;;22.08;15.77;;;;;;;;;;6182028;23;20115;-87
2023/12/07 08:12:27;;;;;;;23.58;14.85;;;;;;;;;;6156011;23;20017;-86
2023/12/07 08:14:54;;;;;;;26.40;17.48;;;;;;;;;;6154926;23;20458;-86
2023/12/07 08:17:21;;;;;;;26.38;17.42;;;;;;;;;;6182067;23;20021;-87
2023/12/07 08:19:49;;;;;;;138.93;53.13;;;;;;;;;;6155960;23;20075;-87
2023/12/07 08:22:17;;;;;;;132.50;51.40;;;;;;;;;;6156141;23;20025;-86
2023/12/07 08:24:44;;;;;;;119.72;48.13;;;;;;;;;;6155858;23;20029;-87
2023/12/07 08:27:18;;;;;;;93.20;40.85;;;;;;;;;;6181794;23;20021;-87
2023/12/07 08:29:46;;;;;;;80.50;44.65;;;;;;;;;;6181524;23;20410;-87
2023/12/07 08:32:14;;;;;;;82.45;46.75;;;;;;;;;;6181424;23;20021;-87
2023/12/07 08:34:41;;;;;;;47.33;25.90;;;;;;;;;;6155976;23;20029;-87
2023/12/07 08:37:08;;;;;;;36.10;21.55;;;;;;;;;;6155691;23;20059;-87
2023/12/07 08:39:36;;;;;;;33.95;20.35;;;;;;;;;;6155861;23;20354;-87
2023/12/07 08:42:03;;;;;;;31.98;20.02;;;;;;;;;;6155599;23;20350;-87
2023/12/07 08:44:31;;;;;;;32.17;19.83;;;;;;;;;;6155692;23;20021;-87
2023/12/07 08:46:58;;;;;;;34.28;20.17;;;;;;;;;;6180806;23;20025;-87
2023/12/07 08:49:25;;;;;;;28.08;18.27;;;;;;;;;;6181675;23;20096;-87
2023/12/07 08:51:53;;;;;;;27.88;18.27;;;;;;;;;;6181793;23;20058;-87
2023/12/07 08:54:40;;;;;;;28.52;19.27;;;;;;;;;;6130211;23;20018;-86
2023/12/07 08:57:07;;;;;;;37.90;24.58;;;;;;;;;;6126154;23;20037;-87
2023/12/07 08:59:35;;;;;;;35.25;22.40;;;;;;;;;;6126963;23;20017;-87
2023/12/07 09:02:02;;;;;;;31.17;18.40;;;;;;;;;;6152351;23;20025;-87
2023/12/07 09:04:29;;;;;;;25.23;17.83;;;;;;;;;;6153124;23;20017;-87
2023/12/07 09:06:57;;;;;;;36.72;22.75;;;;;;;;;;6125489;23;20086;-86
2023/12/07 09:09:25;;;;;;;25.55;16.95;;;;;;;;;;6125947;23;20017;-87
2023/12/07 09:11:53;;;;;;;21.35;15.05;;;;;;;;;;6126267;23;20025;-87
2023/12/07 09:14:21;;;;;;;22.65;14.77;;;;;;;;;;6125607;23;20102;-87
2023/12/07 09:16:49;;;;;;;19.08;14.38;;;;;;;;;;6151454;23;20022;-86
2023/12/07 09:19:16;;;;;;;18.20;12.57;;;;;;;;;;6151399;23;20458;-86
2023/12/07 09:21:44;;;;;;;18.15;12.73;;;;;;;;;;6125743;23;20135;-87
2023/12/07 09:24:11;;;;;;;23.13;14.57;;;;;;;;;;6125918;23;20466;-87
2023/12/07 09:26:38;;;;;;;96.35;48.45;;;;;;;;;;6151972;23;20086;-87
2023/12/07 09:29:05;;;;;;;21.98;14.52;;;;;;;;;;6126200;23;20030;-86
2023/12/07 09:31:33;;;;;;;24.13;17.30;;;;;;;;;;6151545;23;20374;-87
2023/12/07 09:34:00;;;;;;;27.23;18.88;;;;;;;;;;6151826;23;20055;-86
2023/12/07 09:36:39;;;;;;;22.88;14.73;;;;;;;;;;6128380;23;20482;-87
2023/12/07 09:39:06;;;;;;;15.27;11.85;;;;;;;;;;6126555;23;20207;-87
2023/12/07 09:41:33;;;;;;;18.58;12.93;;;;;;;;;;6152061;23;20022;-87
2023/12/07 09:44:01;;;;;;;18.73;12.55;;;;;;;;;;6125726;23;20075;-87
2023/12/07 09:46:29;;;;;;;15.93;11.88;;;;;;;;;;6150987;23;20029;-85
2023/12/07 09:48:56;;;;;;;17.80;12.15;;;;;;;;;;6126340;23;20026;-86
2023/12/07 09:51:24;;;;;;;19.13;12.50;;;;;;;;;;6125540;23;20063;-87
2023/12/07 09:53:54;;;;;;;18.73;13.25;;;;;;;;;;6142958;23;20071;-87
2023/12/07 09:56:22;;;;;;;20.67;15.10;;;;;;;;;;6150338;23;20061;-86
2023/12/07 09:58:49;;;;;;;19.67;14.70;;;;;;;;;;6151712;23;20095;-86
2023/12/07 10:01:17;;;;;;;20.20;13.73;;;;;;;;;;6151919;23;20063;-87
2023/12/07 10:03:46;;;;;;;16.23;12.60;;;;;;;;;;6150774;23;20079;-86
2023/12/07 10:06:14;;;;;;;16.55;11.15;;;;;;;;;;6150231;23;20026;-87
2023/12/07 10:08:44;;;;;;;17.42;12.10;;;;;;;;;;6150129;23;20068;-87
2023/12/07 10:11:15;;;;;;;19.40;12.15;;;;;;;;;;6151440;23;20025;-87
2023/12/07 10:13:42;;;;;;;15.88;11.25;;;;;;;;;;6149889;23;20704;-86
2023/12/07 10:16:11;;;;;;;16.83;11.63;;;;;;;;;;6150189;23;20351;-87
2023/12/07 10:18:40;;;;;;;16.90;12.40;;;;;;;;;;6150401;23;20021;-87
2023/12/07 10:21:10;;;;;;;14.98;11.70;;;;;;;;;;6151252;23;20100;-87
2023/12/07 10:23:38;;;;;;;15.98;12.07;;;;;;;;;;6149824;23;20516;-86
2023/12/07 10:26:06;;;;;;;16.02;11.57;;;;;;;;;;6148944;23;20079;-86
2023/12/07 10:28:37;;;;;;;16.05;11.50;;;;;;;;;;6150325;23;20021;-87
2023/12/07 10:31:08;;;;;;;15.45;11.68;;;;;;;;;;6151365;23;20049;-87
2023/12/07 10:33:36;;;;;;;20.55;11.48;;;;;;;;;;6150431;23;20385;-86
2023/12/07 10:36:04;;;;;;;14.70;11.40;;;;;;;;;;6149818;23;20029;-87
2023/12/07 10:38:32;;;;;;;15.45;11.23;;;;;;;;;;6149813;23;20086;-86
2023/12/07 10:41:06;;;;;;;15.65;11.10;;;;;;;;;;6150182;23;20045;-86
2023/12/07 10:43:38;;;;;;;16.48;10.68;;;;;;;;;;6150391;23;20025;-87
2023/12/07 10:46:06;;;;;;;15.60;10.95;;;;;;;;;;6150783;23;20480;-86
2023/12/07 10:48:33;;;;;;;12.15;9.45;;;;;;;;;;6151308;23;20029;-87
2023/12/07 10:51:03;;;;;;;15.00;9.68;;;;;;;;;;6149352;23;20026;-85
2023/12/07 10:53:40;;;;;;;12.13;9.68;;;;;;;;;;6154711;23;20331;-86
2023/12/07 10:56:10;;;;;;;14.63;9.45;;;;;;;;;;6155222;23;20025;-87
2023/12/07 10:58:38;;;;;;;14.05;10.30;;;;;;;;;;6155890;23;20021;-86
2023/12/07 11:01:08;;;;;;;12.65;10.13;;;;;;;;;;6181940;23;20083;-87
2023/12/07 11:03:36;;;;;;;15.40;10.27;;;;;;;;;;6183993;23;20138;-86
2023/12/07 11:06:05;;;;;;;15.07;11.30;;;;;;;;;;6157951;23;20025;-86
2023/12/07 11:08:43;;;;;;;14.25;10.82;;;;;;;;;;6181137;23;20388;-86
2023/12/07 11:11:27;;;;;;;11.27;9.77;;;;;;;;;;6180909;23;20029;-87
2023/12/07 11:14:03;;;;;;;16.13;10.75;;;;;;;;;;6181001;23;20392;-87
2023/12/07 11:16:31;;;;;;;14.15;10.98;;;;;;;;;;6155063;23;20092;-87
2023/12/07 11:18:59;;;;;;;13.00;10.93;;;;;;;;;;6154561;23;20462;-86
2023/12/07 11:21:27;;;;;;;11.77;9.55;;;;;;;;;;6155217;23;20450;-86
2023/12/07 11:23:54;;;;;;;12.88;9.82;;;;;;;;;;6154793;23;20025;-86
2023/12/07 11:26:25;;;;;;;14.30;10.75;;;;;;;;;;6154334;23;20079;-86
2023/12/07 11:28:52;;;;;;;12.55;10.20;;;;;;;;;;6154790;23;20029;-87
2023/12/07 11:31:20;;;;;;;13.00;9.27;;;;;;;;;;6154708;23;20025;-87
2023/12/07 11:33:48;;;;;;;13.80;10.98;;;;;;;;;;6180805;23;20086;-86
2023/12/07 11:36:15;;;;;;;11.68;9.45;;;;;;;;;;6154118;23;20353;-86
2023/12/07 11:39:02;;;;;;;13.93;10.00;;;;;;;;;;6181919;23;20394;-86
2023/12/07 11:41:30;;;;;;;10.60;9.50;;;;;;;;;;6155881;23;20021;-86
2023/12/07 11:44:00;;;;;;;12.88;10.02;;;;;;;;;;6155623;23;20021;-86
2023/12/07 11:46:28;;;;;;;10.90;9.05;;;;;;;;;;6156053;23;20033;-86
2023/12/07 11:48:55;;;;;;;14.10;10.82;;;;;;;;;;6155998;23;20028;-86
2023/12/07 11:51:23;;;;;;;14.93;11.68;;;;;;;;;;6155084;23;20025;-86
2023/12/07 11:53:51;;;;;;;13.00;10.27;;;;;;;;;;6150489;23;20022;-86
2023/12/07 11:56:21;;;;;;;13.70;10.38;;;;;;;;;;6150426;23;20025;-86
2023/12/07 11:58:49;;;;;;;11.95;10.65;;;;;;;;;;6152479;23;20028;-86
2023/12/07 12:01:17;;;;;;;14.63;11.73;;;;;;;;;;6150746;23;20100;-86
2023/12/07 12:03:45;;;;;;;14.63;11.30;;;;;;;;;;6151567;23;20013;-86
2023/12/07 12:06:12;;;;;;;10.43;8.73;;;;;;;;;;6151271;23;20462;-86
2023/12/07 12:08:41;;;;;;;10.65;8.63;;;;;;;;;;6151068;23;20096;-86
2023/12/07 12:11:09;;;;;;;9.82;7.88;;;;;;;;;;6152365;23;20033;-86
2023/12/07 12:13:37;;;;;;;10.48;8.32;;;;;;;;;;6150764;23;20048;-87
2023/12/07 12:16:04;;;;;;;9.65;8.10;;;;;;;;;;6150224;23;20529;-86
2023/12/07 12:18:33;;;;;;;13.13;9.13;;;;;;;;;;6150569;23;20462;-86
2023/12/07 12:21:01;;;;;;;16.75;10.15;;;;;;;;;;6151213;23;20026;-86
2023/12/07 12:23:29;;;;;;;10.77;8.77;;;;;;;;;;6151112;23;20041;-86
2023/12/07 12:25:57;;;;;;;11.80;8.90;;;;;;;;;;6150275;23;20025;-85
2023/12/07 12:28:24;;;;;;;9.90;8.15;;;;;;;;;;6150721;23;20471;-87
2023/12/07 12:30:52;;;;;;;10.85;9.68;;;;;;;;;;6152059;23;20025;-87
2023/12/07 12:33:20;;;;;;;11.68;8.93;;;;;;;;;;6150922;23;20075;-86
2023/12/07 12:35:47;;;;;;;12.05;9.30;;;;;;;;;;6150140;23;20079;-86
2023/12/07 12:38:14;;;;;;;12.90;10.18;;;;;;;;;;6151074;23;20411;-87
2023/12/07 12:40:54;;;;;;;12.52;9.48;;;;;;;;;;6150489;23;20021;-87
2023/12/07 12:43:21;;;;;;;11.57;9.90;;;;;;;;;;6150633;23;20448;-86
2023/12/07 12:45:49;;;;;;;10.85;8.68;;;;;;;;;;6150063;23;20053;-86
2023/12/07 12:48:32;;;;;;;11.48;8.85;;;;;;;;;;6150786;23;20026;-86
2023/12/07 12:51:08;;;;;;;10.32;8.35;;;;;;;;;;6152160;23;20104;-87
2023/12/07 12:53:35;;;;;;;9.57;8.00;;;;;;;;;;6155645;23;20396;-86
2023/12/07 12:56:03;;;;;;;12.00;9.02;;;;;;;;;;6155115;23;20056;-86
2023/12/07 12:58:31;;;;;;;9.43;8.02;;;;;;;;;;6155981;23;20025;-87
2023/12/07 13:00:58;;;;;;;11.00;8.32;;;;;;;;;;6155677;23;20025;-87
2023/12/07 13:03:25;;;;;;;9.43;8.02;;;;;;;;;;6155851;23;20025;-87
2023/12/07 13:05:53;;;;;;;12.95;8.32;;;;;;;;;;6155614;23;20021;-86
2023/12/07 13:08:21;;;;;;;12.57;7.70;;;;;;;;;;6181733;23;20021;-86
2023/12/07 13:10:49;;;;;;;8.18;7.05;;;;;;;;;;6155890;23;20060;-86
2023/12/07 13:13:17;;;;;;;9.40;7.40;;;;;;;;;;6155644;23;20021;-87
2023/12/07 13:15:44;;;;;;;7.93;7.13;;;;;;;;;;6155796;23;20029;-87
2023/12/07 13:18:11;;;;;;;12.30;8.60;;;;;;;;;;6155697;23;20466;-86
2023/12/07 13:20:39;;;;;;;11.70;9.48;;;;;;;;;;6181764;23;20045;-86
2023/12/07 13:23:21;;;;;;;10.43;8.18;;;;;;;;;;6181673;23;20320;-86
2023/12/07 13:25:48;;;;;;;8.35;6.53;;;;;;;;;;6155280;23;20078;-86
2023/12/07 13:28:16;;;;;;;9.93;6.78;;;;;;;;;;6156245;23;20025;-86
2023/12/07 13:30:43;;;;;;;7.55;5.97;;;;;;;;;;6156409;23;20021;-86
2023/12/07 13:33:10;;;;;;;8.13;6.10;;;;;;;;;;6155957;23;20029;-87
2023/12/07 13:35:54;;;;;;;6.57;5.85;;;;;;;;;;6159161;23;20025;-86
2023/12/07 13:38:23;;;;;;;11.43;6.88;;;;;;;;;;6181818;23;20051;-86
2023/12/07 13:40:51;;;;;;;7.60;6.03;;;;;;;;;;6155698;23;20017;-86
2023/12/07 13:43:18;;;;;;;7.82;6.75;;;;;;;;;;6181530;23;20407;-86
2023/12/07 13:45:46;;;;;;;10.15;6.38;;;;;;;;;;6156007;23;20017;-86
2023/12/07 13:48:14;;;;;;;7.35;6.30;;;;;;;;;;6182209;23;20032;-86
2023/12/07 13:50:41;;;;;;;11.10;6.32;;;;;;;;;;6156488;23;20047;-86
2023/12/07 13:53:10;;;;;;;7.28;6.07;;;;;;;;;;6181330;23;20474;-86
2023/12/07 13:55:39;;;;;;;8.88;6.70;;;;;;;;;;6156027;23;20028;-86
2023/12/07 13:58:06;;;;;;;8.63;7.38;;;;;;;;;;6181589;23;20032;-85
2023/12/07 14:00:34;;;;;;;10.13;7.80;;;;;;;;;;6183203;23;20025;-86
2023/12/07 14:03:01;;;;;;;8.95;7.38;;;;;;;;;;6185932;23;20021;-84
2023/12/07 14:05:29;;;;;;;10.90;7.70;;;;;;;;;;6182185;23;20461;-86
2023/12/07 14:07:56;;;;;;;9.65;7.20;;;;;;;;;;6155225;23;20028;-86
2023/12/07 14:10:24;;;;;;;9.40;8.15;;;;;;;;;;6181281;23;20028;-85
2023/12/07 14:12:51;;;;;;;12.48;8.70;;;;;;;;;;6154825;23;20021;-85
2023/12/07 14:15:18;;;;;;;9.80;7.88;;;;;;;;;;6155059;23;20029;-85
2023/12/07 14:18:01;;;;;;;12.60;8.63;;;;;;;;;;6181427;23;20028;-86
2023/12/07 14:20:29;;;;;;;12.52;9.50;;;;;;;;;;6181823;23;20025;-85
2023/12/07 14:23:16;;;;;;;10.43;7.70;;;;;;;;;;6158907;23;20017;-85
2023/12/07 14:25:46;;;;;;;13.13;8.75;;;;;;;;;;6155100;23;20025;-86